Time;durP1;ratioP1;P1;durP2;ratioP2;P2;SDS_P1;SDS_P2;PMS_P1;PMS_P2;Temp;Humidity;BMP_temperature;BMP_pressure;BME280_temperature;BME280_humidity;BME280_pressure;Samples;Min_cycle;Max_cycle;Signal;HPM_P1;HPM_P2
2022/04/15 00:02:19;;;;;;;;;;;;;;;13.00;69.33;101726.09;5013812;28;19980;-66
2022/04/15 00:04:44;;;;;;;;;;;;;;;12.98;69.43;101727.97;5013952;28;19925;-66
2022/04/15 00:07:10;;;;;;;;;;;;;;;12.98;69.34;101725.31;5018505;28;19925;-66
2022/04/15 00:09:36;;;;;;;;;;;;;;;12.96;69.12;101724.53;5016945;28;20001;-65
2022/04/15 00:12:06;;;;;;;;;;;;;;;12.90;69.27;101719.59;5011400;28;20280;-66
2022/04/15 00:14:32;;;;;;;;;;;;;;;12.84;69.53;101719.91;5014285;28;19948;-65
2022/04/15 00:16:57;;;;;;;;;;;;;;;12.83;69.79;101726.13;5013278;28;20666;-65
2022/04/15 00:19:23;;;;;;;;;;;;;;;12.82;69.77;101725.28;5015514;28;19929;-66
2022/04/15 00:21:48;;;;;;;;;;;;;;;12.81;69.56;101710.34;5019368;28;19940;-65
2022/04/15 00:24:14;;;;;;;;;;;;;;;12.81;69.62;101715.63;5016827;28;20421;-66
2022/04/15 00:26:39;;;;;;;;;;;;;;;12.79;69.51;101713.06;5019319;28;19932;-66
2022/04/15 00:29:06;;;;;;;;;;;;;;;12.79;69.34;101707.78;5016118;28;20451;-66
2022/04/15 00:31:31;;;;;;;;;;;;;;;12.76;69.22;101717.66;5015860;28;19955;-66
2022/04/15 00:33:57;;;;;;;;;;;;;;;12.72;69.30;101721.38;5014945;28;20358;-65
2022/04/15 00:36:22;;;;;;;;;;;;;;;12.67;69.31;101716.34;5017996;28;20428;-65
2022/04/15 00:38:47;;;;;;;;;;;;;;;12.62;69.41;101718.38;5017471;28;19940;-66
2022/04/15 00:41:14;;;;;;;;;;;;;;;12.55;69.31;101716.97;5016199;28;19929;-65
2022/04/15 00:43:39;;;;;;;;;;;;;;;12.45;69.76;101725.34;5015620;28;19994;-66
2022/04/15 00:46:08;;;;;;;;;;;;;;;12.42;69.95;101720.22;5017900;28;20343;-66
2022/04/15 00:48:34;;;;;;;;;;;;;;;12.36;69.85;101720.50;5013412;28;20254;-66
2022/04/15 00:51:00;;;;;;;;;;;;;;;12.34;70.10;101730.28;5017476;28;19921;-66
2022/04/15 00:53:28;;;;;;;;;;;;;;;12.28;70.38;101733.25;5016201;28;20978;-66
2022/04/15 00:55:57;;;;;;;;;;;;;;;12.19;70.58;101735.41;5018329;28;19974;-66
2022/04/15 00:58:23;;;;;;;;;;;;;;;12.08;70.33;101737.72;5017664;28;19921;-65
2022/04/15 01:00:53;;;;;;;;;;;;;;;11.96;70.07;101739.09;5016708;28;20448;-65
2022/04/15 01:03:21;;;;;;;;;;;;;;;11.78;69.60;101724.19;5016088;28;20747;-66
2022/04/15 01:05:47;;;;;;;;;;;;;;;11.70;69.65;101737.72;5017860;28;19940;-66
2022/04/15 01:08:13;;;;;;;;;;;;;;;11.66;69.44;101737.00;5016826;28;20277;-67
2022/04/15 01:10:40;;;;;;;;;;;;;;;11.54;69.01;101738.44;5018027;28;19928;-67
2022/04/15 01:13:06;;;;;;;;;;;;;;;11.48;68.75;101746.59;5016451;28;20289;-66
2022/04/15 01:15:32;;;;;;;;;;;;;;;11.36;68.35;101750.66;5016524;28;19986;-66
2022/04/15 01:17:58;;;;;;;;;;;;;;;11.32;68.51;101740.31;5016721;28;19928;-66
2022/04/15 01:20:23;;;;;;;;;;;;;;;11.28;68.53;101743.09;5013758;28;19917;-66
2022/04/15 01:23:08;;;;;;;;;;;;;;;11.24;68.11;101745.94;5018335;28;19950;-66
2022/04/15 01:25:34;;;;;;;;;;;;;;;11.19;68.13;101740.03;5016968;28;19943;-66
2022/04/15 01:27:59;;;;;;;;;;;;;;;11.16;68.08;101738.38;5017247;28;20388;-65
2022/04/15 01:30:25;;;;;;;;;;;;;;;11.18;68.02;101747.06;5016986;28;19987;-66
2022/04/15 01:32:50;;;;;;;;;;;;;;;11.20;67.83;101739.94;5016522;28;19921;-66
2022/04/15 01:35:16;;;;;;;;;;;;;;;11.18;67.71;101736.53;5015239;28;19921;-66
2022/04/15 01:37:42;;;;;;;;;;;;;;;11.15;67.63;101741.91;5019027;28;20586;-66
2022/04/15 01:40:09;;;;;;;16.30;7.80;;;;;;;11.16;67.35;101743.63;5015379;28;20447;-66
2022/04/15 01:42:36;;;;;;;13.02;7.25;;;;;;;11.15;67.42;101747.19;5014136;28;20489;-66
2022/04/15 01:45:03;;;;;;;13.20;7.35;;;;;;;11.17;67.17;101737.44;5016131;28;20045;-66
2022/04/15 01:47:29;;;;;;;13.02;7.28;;;;;;;11.17;67.13;101744.50;5013260;28;20029;-66
2022/04/15 01:49:54;;;;;;;15.75;7.55;;;;;;;11.16;66.85;101742.78;5017847;28;20692;-66
2022/04/15 01:52:20;;;;;;;17.35;7.53;;;;;;;11.13;66.88;101734.09;5017465;28;20057;-67
2022/04/15 01:54:46;;;;;;;13.52;7.22;;;;;;;11.14;66.86;101742.84;5015828;28;20749;-66
2022/04/15 01:57:12;;;;;;;13.02;7.32;;;;;;;11.16;66.84;101737.53;5014947;28;20037;-67
2022/04/15 01:59:38;;;;;;;10.23;7.03;;;;;;;11.20;66.60;101742.59;5018180;28;20026;-66
2022/04/15 02:02:05;;;;;;;12.23;6.85;;;;;;;11.25;66.00;101743.25;5013566;28;20029;-66
2022/04/15 02:04:31;;;;;;;10.13;6.78;;;;;;;11.23;66.49;101744.22;5015351;28;20836;-66
2022/04/15 02:06:57;;;;;;;16.83;7.13;;;;;;;11.24;66.38;101744.16;5015262;28;20057;-67
2022/04/15 02:09:22;;;;;;;15.52;8.02;;;;;;;11.27;66.42;101743.16;5015191;28;20033;-67
2022/04/15 02:11:48;;;;;;;11.25;7.47;;;;;;;11.26;66.40;101752.88;5015119;28;20095;-66
2022/04/15 02:14:14;;;;;;;14.30;7.63;;;;;;;11.23;66.49;101750.34;5016599;28;20036;-67
2022/04/15 02:16:41;;;;;;;13.00;7.10;;;;;;;11.24;66.50;101738.91;5016535;28;20029;-67
2022/04/15 02:19:07;;;;;;;13.43;8.65;;;;;;;11.27;66.52;101748.44;5015213;28;20112;-67
2022/04/15 02:21:32;;;;;;;14.35;8.15;;;;;;;11.29;66.35;101746.59;5015110;28;20039;-67
2022/04/15 02:23:58;;;;;;;11.18;7.63;;;;;;;11.35;66.25;101748.09;5017654;28;20037;-65
2022/04/15 02:26:24;;;;;;;10.60;7.85;;;;;;;11.41;66.26;101753.09;5011780;28;20473;-65
2022/04/15 02:28:49;;;;;;;12.23;7.10;;;;;;;11.40;65.80;101757.50;5016792;28;20038;-67
2022/04/15 02:31:15;;;;;;;13.73;7.50;;;;;;;11.38;65.79;101754.06;5016769;28;20029;-67
2022/04/15 02:33:41;;;;;;;12.25;7.65;;;;;;;11.37;65.88;101756.78;5014380;28;20072;-67
2022/04/15 02:36:06;;;;;;;13.77;7.53;;;;;;;11.33;65.53;101755.19;5015851;28;20056;-67
2022/04/15 02:38:32;;;;;;;13.57;7.50;;;;;;;11.32;65.71;101756.13;5013821;28;20490;-68
2022/04/15 02:40:58;;;;;;;14.95;6.80;;;;;;;11.32;65.88;101751.72;5014774;28;20109;-67
2022/04/15 02:43:31;;;;;;;13.82;7.40;;;;;;;11.32;65.53;101758.75;5014441;28;20032;-67
2022/04/15 02:45:58;;;;;;;12.55;7.18;;;;;;;11.32;65.59;101761.41;5015563;28;20506;-67
2022/04/15 02:48:24;;;;;;;12.65;6.43;;;;;;;11.26;65.43;101760.78;5013708;28;20033;-68
2022/04/15 02:50:49;;;;;;;11.55;6.97;;;;;;;11.23;65.46;101754.75;5016374;28;20025;-68
2022/04/15 02:53:15;;;;;;;12.02;6.72;;;;;;;11.19;65.44;101761.94;5016207;28;20045;-67
2022/04/15 02:55:40;;;;;;;12.38;6.43;;;;;;;11.16;65.23;101759.44;5016075;28;20072;-67
2022/04/15 02:58:05;;;;;;;11.48;6.82;;;;;;;11.15;65.56;101757.72;5014696;28;20040;-67
2022/04/15 03:00:31;;;;;;;12.15;6.63;;;;;;;11.14;65.35;101750.75;5015277;28;20033;-67
2022/04/15 03:02:56;;;;;;;9.52;6.63;;;;;;;11.14;65.35;101756.00;5013971;28;20034;-67
2022/04/15 03:05:23;;;;;;;11.00;6.70;;;;;;;11.14;65.09;101756.00;5014016;28;20042;-67
2022/04/15 03:07:48;;;;;;;14.07;6.47;;;;;;;11.14;65.02;101756.00;5013348;28;20140;-68
2022/04/15 03:10:14;;;;;;;8.30;6.32;;;;;;;11.15;64.98;101760.34;5014390;28;20111;-67
2022/04/15 03:12:41;;;;;;;14.20;6.60;;;;;;;11.14;64.83;101761.28;5013689;28;20389;-68
2022/04/15 03:15:09;;;;;;;13.40;7.00;;;;;;;11.14;65.31;101758.66;5016415;28;20029;-67
2022/04/15 03:17:35;;;;;;;10.73;6.90;;;;;;;11.14;65.12;101763.91;5013959;28;20037;-67
2022/04/15 03:20:03;;;;;;;13.95;8.10;;;;;;;11.13;65.38;101765.72;5011947;28;20661;-67
2022/04/15 03:22:39;;;;;;;14.93;8.75;;;;;;;11.05;65.68;101766.97;5013930;28;20051;-67
2022/04/15 03:25:07;;;;;;;11.25;7.60;;;;;;;10.96;66.13;101766.44;5011081;28;20034;-66
2022/04/15 03:27:32;;;;;;;12.60;8.30;;;;;;;10.88;66.20;101771.16;5012869;28;20053;-67
2022/04/15 03:29:58;;;;;;;10.68;7.40;;;;;;;10.85;66.52;101771.28;5015443;28;20186;-66
2022/04/15 03:32:28;;;;;;;11.07;7.95;;;;;;;10.86;66.43;101770.38;5012442;28;20386;-67
2022/04/15 03:34:55;;;;;;;10.98;7.72;;;;;;;10.90;66.39;101766.69;5012664;28;20072;-67
2022/04/15 03:37:21;;;;;;;11.77;7.15;;;;;;;10.94;66.33;101768.28;5014273;28;20198;-67
2022/04/15 03:39:47;;;;;;;12.25;8.23;;;;;;;11.01;66.19;101770.63;5010727;28;20068;-67
2022/04/15 03:42:12;;;;;;;13.32;8.68;;;;;;;10.95;66.26;101770.00;5011344;28;20081;-66
2022/04/15 03:44:38;;;;;;;11.68;7.18;;;;;;;10.89;66.47;101769.41;5013067;28;20033;-67
2022/04/15 03:47:04;;;;;;;13.70;8.05;;;;;;;10.86;66.61;101766.91;5011852;28;20034;-66
2022/04/15 03:49:30;;;;;;;11.80;7.63;;;;;;;10.82;66.65;101772.28;5012618;28;20057;-66
2022/04/15 03:51:55;;;;;;;11.55;7.72;;;;;;;10.85;66.61;101781.81;5014907;28;20054;-67
2022/04/15 03:54:21;;;;;;;12.27;8.73;;;;;;;10.81;66.71;101778.47;5015499;28;20052;-66
2022/04/15 03:56:46;;;;;;;12.63;7.72;;;;;;;10.78;66.94;101780.41;5022000;28;20088;-68
2022/04/15 03:59:13;;;;;;;10.73;7.70;;;;;;;10.76;67.14;101779.59;5010655;28;20112;-67
2022/04/15 04:01:39;;;;;;;10.60;8.20;;;;;;;10.70;67.08;101780.72;5013276;28;20069;-66
2022/04/15 04:04:05;;;;;;;12.43;8.57;;;;;;;10.63;67.38;101782.75;5012223;28;20171;-67
2022/04/15 04:06:30;;;;;;;14.55;8.68;;;;;;;10.57;67.55;101782.97;5015331;28;20104;-67
2022/04/15 04:08:56;;;;;;;12.82;8.95;;;;;;;10.53;67.75;101784.03;5014990;28;20034;-66
2022/04/15 04:11:21;;;;;;;14.85;8.88;;;;;;;10.49;67.94;101785.94;5013888;28;20516;-68
2022/04/15 04:13:47;;;;;;;14.25;9.05;;;;;;;10.49;67.96;101790.34;5013290;28;20018;-67
2022/04/15 04:16:13;;;;;;;15.80;8.77;;;;;;;10.45;68.09;101799.28;5014628;28;20084;-66
2022/04/15 04:18:40;;;;;;;17.48;10.27;;;;;;;10.42;68.29;101794.13;5013324;28;20045;-67
2022/04/15 04:21:05;;;;;;;20.98;14.52;;;;;;;10.34;68.59;101797.91;5014292;28;20034;-66
2022/04/15 04:23:31;;;;;;;12.48;9.00;;;;;;;10.32;69.04;101790.97;5014693;28;20030;-67
2022/04/15 04:25:56;;;;;;;16.77;9.23;;;;;;;10.39;68.96;101799.50;5012680;28;20120;-67
2022/04/15 04:28:22;;;;;;;12.10;8.70;;;;;;;10.40;68.77;101801.22;5015062;28;20030;-67
2022/04/15 04:30:47;;;;;;;16.25;9.73;;;;;;;10.37;68.69;101803.03;5014097;28;20644;-67
2022/04/15 04:33:13;;;;;;;12.40;8.65;;;;;;;10.36;68.77;101806.56;5011237;28;20052;-66
2022/04/15 04:35:38;;;;;;;15.77;10.23;;;;;;;10.33;69.13;101809.34;5013619;28;20037;-66
2022/04/15 04:38:05;;;;;;;13.10;8.90;;;;;;;10.31;69.26;101813.81;5015293;28;20646;-66
2022/04/15 04:40:32;;;;;;;12.18;8.85;;;;;;;10.30;69.21;101817.34;5015524;28;20056;-66
2022/04/15 04:42:58;;;;;;;16.35;9.30;;;;;;;10.29;69.28;101820.91;5014179;28;20036;-67
2022/04/15 04:45:24;;;;;;;11.80;7.80;;;;;;;10.29;69.32;101823.53;5014594;28;20030;-67
2022/04/15 04:47:50;;;;;;;12.00;7.93;;;;;;;10.26;69.50;101826.28;5010042;28;20033;-66
2022/04/15 04:50:17;;;;;;;12.27;7.35;;;;;;;10.20;69.46;101821.28;5014253;28;20025;-67
2022/04/15 04:52:42;;;;;;;12.43;7.47;;;;;;;10.16;69.63;101832.81;5015328;28;20472;-67
2022/04/15 04:55:09;;;;;;;7.97;6.45;;;;;;;10.12;69.79;101832.09;5022362;28;20037;-67
2022/04/15 04:57:34;;;;;;;10.80;7.25;;;;;;;10.03;70.00;101835.94;5015305;28;20029;-66
2022/04/15 05:00:00;;;;;;;12.82;7.20;;;;;;;9.96;70.29;101828.34;5014274;28;20414;-66
2022/04/15 05:02:25;;;;;;;11.75;6.43;;;;;;;9.94;69.97;101825.75;5012934;28;20688;-66
2022/04/15 05:04:51;;;;;;;9.00;6.70;;;;;;;9.84;70.11;101835.75;5013253;28;20093;-67
2022/04/15 05:07:16;;;;;;;10.32;6.70;;;;;;;9.80;70.58;101841.16;5014004;28;20839;-66
2022/04/15 05:09:43;;;;;;;8.13;5.95;;;;;;;9.81;70.66;101830.63;5017312;28;21052;-68
2022/04/15 05:12:11;;;;;;;8.05;5.53;;;;;;;9.85;70.59;101841.88;5018623;28;20025;-67
2022/04/15 05:14:37;;;;;;;7.72;5.75;;;;;;;9.89;70.71;101832.97;5016464;28;20030;-66
2022/04/15 05:17:04;;;;;;;8.18;5.53;;;;;;;9.93;70.18;101839.78;5016858;28;20575;-68
2022/04/15 05:19:29;;;;;;;9.85;5.78;;;;;;;9.99;70.25;101842.22;5014838;28;20033;-67
2022/04/15 05:21:55;;;;;;;11.02;5.88;;;;;;;10.05;70.17;101847.25;5017075;28;20053;-66
2022/04/15 05:24:20;;;;;;;7.63;5.50;;;;;;;10.11;70.08;101840.03;5015793;28;20140;-66
2022/04/15 05:26:46;;;;;;;8.98;6.18;;;;;;;10.14;69.68;101847.81;5013272;28;20061;-67
2022/04/15 05:29:11;;;;;;;6.90;5.10;;;;;;;10.15;69.73;101845.09;5018841;28;20088;-67
2022/04/15 05:31:37;;;;;;;7.47;5.22;;;;;;;10.13;69.58;101846.09;5014684;28;20532;-67
2022/04/15 05:34:04;;;;;;;7.60;5.68;;;;;;;10.11;69.72;101853.19;5015849;28;20126;-68
2022/04/15 05:36:30;;;;;;;6.53;5.30;;;;;;;10.09;69.89;101847.97;5018528;28;20087;-67
2022/04/15 05:38:55;;;;;;;8.93;5.63;;;;;;;10.09;69.79;101853.25;5017729;28;20033;-67
2022/04/15 05:41:21;;;;;;;8.18;5.53;;;;;;;10.11;70.07;101853.19;5018133;28;20037;-67
2022/04/15 05:43:47;;;;;;;10.55;5.70;;;;;;;10.13;70.13;101857.47;5016247;28;20553;-67
2022/04/15 05:46:13;;;;;;;6.93;5.20;;;;;;;10.18;70.09;101857.28;5017842;28;20041;-67
2022/04/15 05:48:39;;;;;;;7.55;5.35;;;;;;;10.20;70.06;101864.19;5016149;28;20116;-67
2022/04/15 05:51:05;;;;;;;7.68;5.10;;;;;;;10.22;69.82;101857.13;5017493;28;20129;-66
2022/04/15 05:53:30;;;;;;;8.65;5.78;;;;;;;10.21;69.71;101870.31;5017523;28;20088;-67
2022/04/15 05:55:57;;;;;;;8.20;5.78;;;;;;;10.17;70.19;101863.47;5018486;28;20038;-67
2022/04/15 05:58:24;;;;;;;8.00;5.40;;;;;;;10.18;70.31;101867.81;5016405;28;20483;-67
2022/04/15 06:00:49;;;;;;;9.93;5.40;;;;;;;10.16;70.02;101875.75;5015913;28;20041;-68
2022/04/15 06:03:15;;;;;;;8.60;5.70;;;;;;;10.17;70.07;101871.38;5017738;28;20045;-67
2022/04/15 06:05:40;;;;;;;8.73;5.68;;;;;;;10.19;70.04;101877.44;5014429;28;20025;-67
2022/04/15 06:08:06;;;;;;;8.70;5.40;;;;;;;10.21;69.85;101875.56;5015785;28;20090;-67
2022/04/15 06:10:31;;;;;;;9.13;5.85;;;;;;;10.21;69.75;101886.97;5016240;28;20037;-67
2022/04/15 06:13:06;;;;;;;6.90;5.65;;;;;;;10.25;69.70;101885.06;5016971;28;20087;-67
2022/04/15 06:15:32;;;;;;;10.18;5.38;;;;;;;10.27;69.68;101880.59;5013423;28;20034;-67
2022/04/15 06:18:02;;;;;;;8.80;5.60;;;;;;;10.28;69.45;101881.47;5016884;28;20435;-67
2022/04/15 06:20:28;;;;;;;8.80;5.20;;;;;;;10.31;69.66;101887.47;5016942;28;20033;-66
2022/04/15 06:22:54;;;;;;;11.85;4.97;;;;;;;10.33;69.56;101882.16;5014023;28;20051;-67
2022/04/15 06:25:20;;;;;;;8.65;6.03;;;;;;;10.37;69.48;101881.97;5016288;28;20033;-67
2022/04/15 06:27:46;;;;;;;9.18;6.00;;;;;;;10.39;69.23;101884.59;5016367;28;20041;-67
2022/04/15 06:30:11;;;;;;;9.63;5.60;;;;;;;10.36;69.48;101885.50;5016085;28;20124;-69
2022/04/15 06:32:37;;;;;;;8.07;6.05;;;;;;;10.39;69.66;101891.59;5014048;28;20789;-68
2022/04/15 06:35:04;;;;;;;8.70;6.05;;;;;;;10.41;69.54;101893.28;5015562;28;20195;-67
2022/04/15 06:37:29;;;;;;;10.15;6.53;;;;;;;10.42;69.28;101894.13;5017770;28;20515;-67
2022/04/15 06:39:55;;;;;;;8.80;6.53;;;;;;;10.44;69.29;101894.94;5015426;28;20041;-67
2022/04/15 06:42:28;;;;;;;9.93;6.75;;;;;;;10.45;69.29;101899.28;5015604;28;20028;-67
2022/04/15 06:44:54;;;;;;;9.75;5.60;;;;;;;10.43;69.08;101899.34;5014222;28;20746;-67
2022/04/15 06:47:19;;;;;;;11.50;6.90;;;;;;;10.40;69.30;101895.94;5014690;28;20141;-67
2022/04/15 06:49:46;;;;;;;13.85;6.55;;;;;;;10.34;69.31;101900.53;5015097;28;20041;-68
2022/04/15 06:52:15;;;;;;;9.88;7.45;;;;;;;10.32;69.72;101898.84;5015160;28;20025;-66
2022/04/15 06:54:41;;;;;;;9.77;6.32;;;;;;;10.30;69.89;101900.66;5014613;28;20029;-66
2022/04/15 06:57:07;;;;;;;10.20;7.35;;;;;;;10.34;69.75;101900.53;5016520;28;20045;-67
2022/04/15 06:59:33;;;;;;;12.70;6.55;;;;;;;10.36;70.13;101903.06;5014889;28;20087;-67
2022/04/15 07:01:59;;;;;;;12.00;6.72;;;;;;;10.36;69.92;101910.97;5014661;28;20119;-66
2022/04/15 07:04:25;;;;;;;11.05;6.93;;;;;;;10.38;69.86;101903.91;5013537;28;20056;-67
2022/04/15 07:06:51;;;;;;;10.63;6.65;;;;;;;10.42;69.88;101902.00;5013340;28;20042;-66
2022/04/15 07:09:17;;;;;;;11.07;6.85;;;;;;;10.45;69.75;101904.53;5018234;28;20087;-67
2022/04/15 07:11:43;;;;;;;12.93;6.95;;;;;;;10.45;69.71;101909.78;5014587;28;20096;-67
2022/04/15 07:14:08;;;;;;;11.63;7.05;;;;;;;10.36;70.11;101906.56;5016278;28;20040;-67
2022/04/15 07:16:34;;;;;;;10.68;7.30;;;;;;;10.35;70.54;101907.50;5017556;28;20037;-67
2022/04/15 07:19:04;;;;;;;11.95;7.03;;;;;;;10.32;70.66;101912.88;5028906;28;20114;-67
2022/04/15 07:21:31;;;;;;;9.05;6.82;;;;;;;10.30;70.71;101914.69;5016131;28;20715;-66
2022/04/15 07:23:56;;;;;;;9.10;6.45;;;;;;;10.29;70.43;101920.00;5016203;28;20037;-67
2022/04/15 07:26:22;;;;;;;10.25;7.03;;;;;;;10.27;70.81;101920.06;5014900;28;20029;-67
2022/04/15 07:28:47;;;;;;;9.18;6.72;;;;;;;10.28;70.70;101918.31;5016665;28;20051;-67
2022/04/15 07:31:13;;;;;;;10.95;6.28;;;;;;;10.29;70.96;101922.63;5013879;28;20044;-67
2022/04/15 07:33:38;;;;;;;11.52;6.85;;;;;;;10.27;71.15;101917.44;5014336;28;20425;-67
2022/04/15 07:36:31;;;;;;;8.02;6.40;;;;;;;10.30;71.01;101922.59;5014115;28;20499;-67
2022/04/15 07:38:49;;;;;;;8.63;6.32;;;;;;;10.29;71.31;101915.59;5015579;28;20077;-66
2022/04/15 07:41:16;;;;;;;9.70;6.13;;;;;;;10.28;71.36;101926.19;5012988;28;20037;-67
2022/04/15 07:43:42;;;;;;;7.95;5.57;;;;;;;10.28;71.44;101919.16;5016280;28;20048;-66
2022/04/15 07:46:07;;;;;;;8.43;5.90;;;;;;;10.31;71.63;101923.44;5015843;28;20033;-67
2022/04/15 07:48:33;;;;;;;8.25;5.90;;;;;;;10.35;71.46;101923.28;5014246;28;20413;-66
2022/04/15 07:50:59;;;;;;;9.90;5.63;;;;;;;10.39;71.31;101936.34;5013005;28;20038;-67
2022/04/15 07:53:24;;;;;;;8.15;6.00;;;;;;;10.37;71.07;101934.59;5011036;28;20034;-67
2022/04/15 07:55:50;;;;;;;8.10;5.80;;;;;;;10.30;71.19;101941.00;5013919;28;20037;-66
2022/04/15 07:58:16;;;;;;;8.88;6.57;;;;;;;10.26;71.29;101936.75;5014718;28;20029;-67
2022/04/15 08:00:42;;;;;;;7.47;5.72;;;;;;;10.18;71.75;101936.22;5013466;28;20133;-66
2022/04/15 08:03:08;;;;;;;9.07;6.13;;;;;;;10.13;71.99;101940.75;5010249;28;20261;-66
2022/04/15 08:05:34;;;;;;;9.32;6.07;;;;;;;10.14;72.06;101942.47;5015103;28;20539;-67
2022/04/15 08:07:59;;;;;;;8.43;5.90;;;;;;;10.14;72.30;101942.47;5014246;28;20065;-66
2022/04/15 08:10:25;;;;;;;7.47;5.50;;;;;;;10.19;72.23;101944.03;5015949;28;20033;-66
2022/04/15 08:12:50;;;;;;;12.15;5.78;;;;;;;10.27;72.28;101948.16;5012046;28;20099;-66
2022/04/15 08:15:16;;;;;;;9.57;5.97;;;;;;;10.31;72.24;101948.00;5013274;28;20405;-66
2022/04/15 08:17:41;;;;;;;11.13;5.70;;;;;;;10.36;72.03;101948.66;5011593;28;20084;-66
2022/04/15 08:20:07;;;;;;;7.75;5.60;;;;;;;10.40;71.96;101943.31;5011068;28;20494;-67
2022/04/15 08:22:35;;;;;;;8.90;6.13;;;;;;;10.44;72.11;101944.91;5013147;28;20049;-66
2022/04/15 08:25:01;;;;;;;9.30;5.63;;;;;;;10.51;72.01;101946.41;5008593;28;20041;-66
2022/04/15 08:27:27;;;;;;;7.18;5.38;;;;;;;10.52;72.00;101948.97;5010856;28;20039;-66
2022/04/15 08:29:53;;;;;;;6.85;5.47;;;;;;;10.54;72.30;101953.31;5007894;28;20366;-69
2022/04/15 08:32:20;;;;;;;5.70;4.47;;;;;;;10.56;72.10;101944.44;5007250;28;20106;-68
2022/04/15 08:34:45;;;;;;;6.20;4.60;;;;;;;10.53;71.90;101962.97;5010674;28;20104;-66
2022/04/15 08:37:13;;;;;;;5.55;4.63;;;;;;;10.44;71.93;101960.72;5004927;28;20099;-65
2022/04/15 08:39:39;;;;;;;5.68;4.80;;;;;;;10.37;72.42;101962.69;5009310;28;20029;-66
2022/04/15 08:42:07;;;;;;;6.47;4.65;;;;;;;10.33;72.47;101972.47;5014598;28;20049;-66
2022/04/15 08:44:33;;;;;;;5.53;4.50;;;;;;;10.31;72.68;101966.41;5016861;28;20034;-66
2022/04/15 08:47:01;;;;;;;6.03;4.47;;;;;;;10.36;72.68;101967.06;5017592;28;20491;-65
2022/04/15 08:49:26;;;;;;;6.85;4.43;;;;;;;10.40;72.57;101973.13;5016367;28;20038;-66
2022/04/15 08:51:52;;;;;;;6.55;4.22;;;;;;;10.41;72.53;101972.22;5017705;28;20099;-65
2022/04/15 08:54:20;;;;;;;5.60;4.30;;;;;;;10.44;72.46;101971.22;5016333;28;20034;-66
2022/04/15 08:56:46;;;;;;;4.85;3.95;;;;;;;10.45;72.53;101979.06;5017159;28;20033;-65
2022/04/15 08:59:11;;;;;;;3.50;3.17;;;;;;;10.47;72.47;101977.22;5017039;28;20116;-68
2022/04/15 09:01:37;;;;;;;4.07;3.33;;;;;;;10.53;72.25;101981.41;5017302;28;20123;-66
2022/04/15 09:04:03;;;;;;;5.57;3.58;;;;;;;10.55;72.15;101984.00;5017810;28;20029;-66
2022/04/15 09:06:31;;;;;;;4.07;3.15;;;;;;;10.53;72.10;101991.94;5012736;28;20113;-66
2022/04/15 09:09:08;;;;;;;4.28;3.47;;;;;;;10.52;72.33;101984.94;5013553;28;20107;-66
2022/04/15 09:11:36;;;;;;;4.05;3.28;;;;;;;10.54;72.43;101992.81;5017947;28;20032;-68
2022/04/15 09:14:08;;;;;;;4.07;3.20;;;;;;;10.53;72.50;101994.56;5015726;28;20033;-67
2022/04/15 09:16:41;;;;;;;4.45;3.22;;;;;;;10.51;72.54;101991.16;5019991;28;20029;-67
2022/04/15 09:19:09;;;;;;;4.32;3.45;;;;;;;10.49;72.78;102006.13;5016746;28;20037;-67
2022/04/15 09:21:35;;;;;;;4.25;3.20;;;;;;;10.46;72.69;102000.97;5018127;28;20033;-67
2022/04/15 09:24:02;;;;;;;3.80;3.30;;;;;;;10.45;72.93;101997.47;5019067;28;20021;-67
2022/04/15 09:26:27;;;;;;;4.43;3.38;;;;;;;10.45;72.93;102007.16;5024332;28;20034;-66
2022/04/15 09:28:53;;;;;;;2.95;2.65;;;;;;;10.45;72.87;101994.00;5017720;28;20025;-66
2022/04/15 09:31:21;;;;;;;3.20;2.70;;;;;;;10.49;73.16;102000.88;5017886;28;20105;-64
2022/04/15 09:33:51;;;;;;;3.80;2.63;;;;;;;10.51;73.03;102014.84;5018387;28;20187;-65
2022/04/15 09:36:25;;;;;;;3.40;2.80;;;;;;;10.53;72.79;101999.81;5018641;28;20025;-65
2022/04/15 09:38:55;;;;;;;5.35;2.75;;;;;;;10.54;72.58;102004.16;5018222;28;20889;-65
2022/04/15 09:41:22;;;;;;;2.85;2.55;;;;;;;10.59;72.78;102007.50;5015416;28;20037;-66
2022/04/15 09:43:52;;;;;;;3.13;2.83;;;;;;;10.64;72.62;102007.31;5014510;28;20026;-67
2022/04/15 09:46:18;;;;;;;5.10;2.47;;;;;;;10.67;72.23;102013.31;5015024;28;20063;-66
2022/04/15 09:49:03;;;;;;;3.42;2.70;;;;;;;10.67;72.31;102023.84;5014753;28;20064;-68
2022/04/15 09:51:35;;;;;;;3.35;2.53;;;;;;;10.68;72.46;102015.03;5014653;28;20490;-65
2022/04/15 09:54:03;;;;;;;7.90;5.47;;;;;;;10.70;72.55;102015.00;5016771;28;20036;-67
2022/04/15 09:56:32;;;;;;;3.40;2.72;;;;;;;10.65;72.65;102023.06;5019203;28;20657;-67
2022/04/15 09:59:05;;;;;;;3.13;2.80;;;;;;;10.65;72.94;102024.84;5017548;28;20057;-67
2022/04/15 10:01:32;;;;;;;2.67;2.30;;;;;;;10.65;72.85;102016.94;5016257;28;20032;-67
2022/04/15 10:03:59;;;;;;;2.75;2.35;;;;;;;10.63;72.75;102030.16;5016526;28;20116;-67
2022/04/15 10:06:26;;;;;;;2.75;2.20;;;;;;;10.63;72.78;102035.44;5016621;28;20417;-67
2022/04/15 10:08:53;;;;;;;4.47;2.53;;;;;;;10.57;72.73;102025.13;5015929;28;20037;-67
2022/04/15 10:11:19;;;;;;;3.10;2.80;;;;;;;10.56;72.79;102031.28;5016344;28;20039;-66
2022/04/15 10:13:45;;;;;;;3.13;2.33;;;;;;;10.54;72.84;102032.28;5017784;28;20066;-67
2022/04/15 10:16:12;;;;;;;2.88;2.30;;;;;;;10.52;73.09;102037.59;5017027;28;20495;-68
2022/04/15 10:18:41;;;;;;;3.45;2.58;;;;;;;10.49;72.92;102032.47;5014171;28;20123;-67
2022/04/15 10:21:07;;;;;;;3.70;2.60;;;;;;;10.49;73.34;102037.72;5018884;28;20026;-68
2022/04/15 10:23:34;;;;;;;2.83;2.42;;;;;;;10.47;73.38;102042.19;5014972;28;20462;-67
2022/04/15 10:26:01;;;;;;;3.53;2.72;;;;;;;10.46;73.44;102048.34;5016695;28;20041;-65
2022/04/15 10:28:43;;;;;;;3.60;2.88;;;;;;;10.47;73.65;102044.81;5017219;28;20146;-65
2022/04/15 10:31:16;;;;;;;3.97;3.25;;;;;;;10.44;73.55;102044.91;5015386;28;20037;-68
2022/04/15 10:33:43;;;;;;;3.17;2.60;;;;;;;10.43;73.85;102048.47;5018306;28;20033;-67
2022/04/15 10:36:22;;;;;;;3.92;3.13;;;;;;;10.51;73.74;102046.41;5017758;28;20431;-66
2022/04/15 10:39:03;;;;;;;3.42;2.92;;;;;;;10.60;73.34;102043.44;5016583;28;20096;-67
2022/04/15 10:41:41;;;;;;;3.20;2.90;;;;;;;10.66;73.20;102053.72;5016696;28;20943;-67
2022/04/15 10:44:11;;;;;;;4.85;2.92;;;;;;;10.72;73.03;102051.78;5015532;28;20029;-68
2022/04/15 10:46:37;;;;;;;3.45;2.88;;;;;;;10.74;72.85;102057.84;5017791;28;20038;-67
2022/04/15 10:49:19;;;;;;;5.80;3.10;;;;;;;10.72;72.95;102059.69;5018989;28;20041;-69
2022/04/15 10:51:44;;;;;;;4.40;3.40;;;;;;;10.67;73.16;102063.34;5015111;28;20083;-68
2022/04/15 10:54:28;;;;;;;4.30;3.05;;;;;;;10.70;73.29;102057.13;5016184;28;20066;-71
2022/04/15 10:57:02;;;;;;;3.80;2.88;;;;;;;10.72;73.47;102064.94;5016799;28;20029;-71
2022/04/15 11:02:16;;;;;;;3.13;2.70;;;;;;;10.87;72.84;102063.53;5014201;28;20063;-70
2022/04/15 11:04:50;;;;;;;3.17;2.50;;;;;;;10.96;72.88;102063.16;5017911;28;20424;-71
2022/04/15 11:07:28;;;;;;;3.00;2.50;;;;;;;11.08;72.58;102073.22;5017748;28;20029;-71
2022/04/15 11:09:55;;;;;;;3.25;2.38;;;;;;;11.18;72.33;102062.34;5019961;28;20467;-74
2022/04/15 11:12:35;;;;;;;3.30;2.40;;;;;;;11.26;72.06;102060.25;5018435;28;20056;-72
2022/04/15 11:15:01;;;;;;;;;;;;;;;11.22;71.74;102067.44;5021830;28;20400;-72
2022/04/15 11:17:41;;;;;;;4.22;2.45;;;;;;;11.17;71.45;102072.00;5018112;28;20531;-73
2022/04/15 11:20:09;;;;;;;2.10;1.90;;;;;;;11.11;71.09;102073.13;5022288;28;20615;-72
2022/04/15 11:22:43;;;;;;;2.70;1.90;;;;;;;11.03;70.59;102077.84;5019405;28;20168;-72
2022/04/15 11:25:10;;;;;;;4.32;2.08;;;;;;;10.97;70.83;102083.31;5018957;28;20112;-68
2022/04/15 11:27:39;;;;;;;3.13;2.70;;;;;;;10.91;70.29;102087.06;5020955;28;20029;-71
2022/04/15 11:30:14;;;;;;;4.30;3.53;;;;;;;10.80;70.02;102090.09;5017665;28;20052;-73
2022/04/15 11:32:54;;;;;;;4.15;3.70;;;;;;;10.71;69.93;102094.81;5019761;28;20026;-74
2022/04/15 11:35:46;;;;;;;4.32;3.67;;;;;;;10.67;70.00;102094.94;5020331;28;20065;-73